Time;durP1;ratioP1;P1;durP2;ratioP2;P2;SDS_P1;SDS_P2;PMS_P1;PMS_P2;Temp;Humidity;BMP_temperature;BMP_pressure;BME280_temperature;BME280_humidity;BME280_pressure;Samples;Min_cycle;Max_cycle;Signal;HPM_P1;HPM_P2
2021/07/07 06:35:19;;;;;;;11.45;3.40;;;;;;;16.82;74.68;100276.69;5028555;28;20049;-69
2021/07/07 06:37:45;;;;;;;7.63;3.28;;;;;;;16.94;74.43;100273.97;5008335;28;20421;-70
2021/07/07 06:40:11;;;;;;;10.93;3.30;;;;;;;17.05;74.37;100277.16;5026160;28;20045;-70
2021/07/07 06:42:37;;;;;;;6.80;3.13;;;;;;;17.15;74.13;100271.97;4992595;28;20034;-70
2021/07/07 06:45:07;;;;;;;6.68;2.80;;;;;;;17.25;74.14;100273.53;5020882;28;20052;-70
2021/07/07 06:50:09;;;;;;;7.00;2.90;;;;;;;17.40;73.84;100280.47;4481567;23;20061;-72
2021/07/07 06:52:35;;;;;;;9.98;3.90;;;;;;;17.47;73.80;100279.91;5027216;28;20045;-71
2021/07/07 06:55:01;;;;;;;7.65;3.28;;;;;;;17.53;73.86;100284.97;5018352;28;20481;-71
2021/07/07 06:57:26;;;;;;;11.00;4.13;;;;;;;17.52;74.83;100280.50;5016168;28;20400;-72
2021/07/07 06:59:52;;;;;;;8.85;3.85;;;;;;;17.64;73.79;100282.53;5038910;28;20065;-71
2021/07/07 07:02:17;;;;;;;7.85;3.47;;;;;;;17.76;73.44;100279.75;5022021;28;20034;-71
2021/07/07 07:04:43;;;;;;;5.97;3.10;;;;;;;17.85;73.29;100291.72;5021758;28;20048;-72
2021/07/07 07:07:09;;;;;;;8.75;3.40;;;;;;;17.96;73.26;100286.47;5007455;28;20045;-72
2021/07/07 07:09:34;;;;;;;5.82;2.75;;;;;;;18.11;73.18;100289.75;5011235;28;20033;-72
2021/07/07 07:12:00;;;;;;;8.85;2.65;;;;;;;18.31;72.44;100291.66;5005465;28;20109;-72
2021/07/07 07:14:25;;;;;;;7.18;2.80;;;;;;;18.46;72.51;100299.38;4989554;28;20030;-72
2021/07/07 07:16:51;;;;;;;8.85;2.80;;;;;;;18.69;71.93;100301.69;5004347;28;20080;-72
2021/07/07 07:19:16;;;;;;;6.28;2.22;;;;;;;18.91;71.75;100309.66;5036621;28;20085;-72
2021/07/07 07:21:42;;;;;;;8.70;3.03;;;;;;;19.13;71.26;100304.66;5011004;28;20040;-72
2021/07/07 07:24:08;;;;;;;8.15;3.15;;;;;;;19.39;70.53;100316.31;5006612;28;20037;-72
2021/07/07 07:26:34;;;;;;;5.55;2.25;;;;;;;19.61;70.22;100314.06;4985727;28;20129;-72
2021/07/07 07:29:00;;;;;;;8.35;2.65;;;;;;;19.91;69.77;100313.72;5004906;28;20132;-72
2021/07/07 07:31:25;;;;;;;8.07;2.50;;;;;;;20.15;69.19;100312.75;4988867;28;20057;-72
2021/07/07 07:33:51;;;;;;;7.22;1.90;;;;;;;20.37;68.69;100314.09;4989281;28;20425;-72
2021/07/07 07:36:18;;;;;;;4.65;2.30;;;;;;;20.58;68.10;100313.81;4985830;28;20041;-72
2021/07/07 07:38:46;;;;;;;8.70;2.45;;;;;;;20.75;67.73;100317.06;5003861;28;20053;-72
2021/07/07 07:41:12;;;;;;;8.30;2.10;;;;;;;20.92;67.12;100320.63;5024619;28;20244;-72
2021/07/07 07:43:37;;;;;;;6.03;2.20;;;;;;;21.01;66.30;100329.75;5013014;28;20080;-72
2021/07/07 07:46:03;;;;;;;9.45;2.17;;;;;;;21.08;66.26;100329.88;5004891;28;20067;-72
2021/07/07 07:48:29;;;;;;;7.45;2.15;;;;;;;21.16;66.24;100339.34;5004986;28;20037;-72
2021/07/07 07:50:56;;;;;;;5.57;2.05;;;;;;;21.22;66.09;100329.38;5003884;28;20057;-72
2021/07/07 07:53:21;;;;;;;8.60;2.20;;;;;;;21.29;65.43;100331.56;5004961;28;20041;-72
2021/07/07 07:55:47;;;;;;;7.22;1.95;;;;;;;21.36;65.33;100329.66;5004655;28;20037;-73
2021/07/07 07:58:19;;;;;;;10.25;2.30;;;;;;;21.37;65.33;100333.38;5005664;28;20060;-71
2021/07/07 08:00:45;;;;;;;4.10;1.80;;;;;;;21.49;65.42;100338.03;5024793;28;20042;-72
2021/07/07 08:03:11;;;;;;;5.68;2.00;;;;;;;21.55;65.29;100337.34;4988937;28;20397;-72
2021/07/07 08:05:37;;;;;;;7.32;2.15;;;;;;;21.65;64.62;100335.94;5003326;28;20048;-72
2021/07/07 08:08:03;;;;;;;8.35;2.20;;;;;;;21.75;64.71;100348.66;5033644;28;20041;-72
2021/07/07 08:10:28;;;;;;;4.50;1.77;;;;;;;21.84;63.49;100350.06;5022053;28;20073;-72
2021/07/07 08:12:54;;;;;;;4.47;1.80;;;;;;;21.95;63.75;100355.88;4993153;28;20041;-73
2021/07/07 08:15:20;;;;;;;6.15;1.80;;;;;;;21.97;61.89;100358.34;5035453;28;20030;-72
2021/07/07 08:17:46;;;;;;;8.77;2.28;;;;;;;22.04;62.53;100352.84;4987711;28;20525;-72
2021/07/07 08:20:12;;;;;;;6.60;1.88;;;;;;;22.05;63.08;100366.59;5036362;28;20046;-73
2021/07/07 08:22:38;;;;;;;7.40;1.77;;;;;;;22.14;62.22;100359.88;5013318;28;20069;-72
